Time;durP1;ratioP1;P1;durP2;ratioP2;P2;SDS_P1;SDS_P2;PMS_P1;PMS_P2;Temp;Humidity;BMP_temperature;BMP_pressure;BME280_temperature;BME280_humidity;BME280_pressure;Samples;Min_cycle;Max_cycle;Signal;HPM_P1;HPM_P2
2022/08/30 00:02:37;;;;;;;6.07;3.33;;;17.10;1.00;;;;;;4993381;28;20459;-85
2022/08/30 00:05:05;;;;;;;6.20;3.20;;;17.10;1.00;;;;;;4994033;28;20518;-84
2022/08/30 00:07:33;;;;;;;5.70;3.53;;;17.00;1.00;;;;;;4988423;28;20467;-84
2022/08/30 00:10:00;;;;;;;7.30;3.50;;;17.00;1.00;;;;;;4994491;28;20470;-84
2022/08/30 00:12:28;;;;;;;7.20;5.10;;;17.00;1.00;;;;;;4991552;28;20459;-85
2022/08/30 00:14:57;;;;;;;6.47;4.00;;;16.90;1.00;;;;;;4993296;28;20471;-85
2022/08/30 00:17:23;;;;;;;8.17;3.77;;;16.90;1.00;;;;;;4998682;28;20491;-85
2022/08/30 00:19:52;;;;;;;6.20;3.50;;;16.90;1.00;;;;;;4997415;28;20443;-85
2022/08/30 00:22:18;;;;;;;6.00;3.70;;;16.90;1.00;;;;;;4998033;28;20474;-84
2022/08/30 00:24:45;;;;;;;8.53;3.83;;;16.90;1.00;;;;;;4996581;28;20462;-84
2022/08/30 00:27:15;;;;;;;7.10;4.17;;;16.80;1.00;;;;;;4980532;28;20475;-84
2022/08/30 00:29:45;;;;;;;5.90;3.77;;;16.80;1.00;;;;;;4993557;28;20580;-84
2022/08/30 00:32:21;;;;;;;8.43;4.57;;;16.90;1.00;;;;;;4974959;28;20448;-85
2022/08/30 00:34:49;;;;;;;6.00;3.50;;;16.80;1.00;;;;;;4984286;28;20447;-85
2022/08/30 00:37:20;;;;;;;7.30;4.00;;;16.90;1.00;;;;;;4996752;28;20825;-85
2022/08/30 00:39:48;;;;;;;6.73;4.17;;;16.90;1.00;;;;;;4988425;28;20465;-84
2022/08/30 00:42:18;;;;;;;5.70;3.80;;;16.90;1.00;;;;;;4992341;28;20458;-84
2022/08/30 00:44:45;;;;;;;6.83;4.23;;;16.90;1.00;;;;;;4998278;28;20921;-84
2022/08/30 00:47:12;;;;;;;9.13;4.20;;;16.90;1.00;;;;;;4999543;28;20998;-85
2022/08/30 00:49:42;;;;;;;6.90;4.53;;;16.90;1.00;;;;;;4999806;28;20506;-85
2022/08/30 00:52:11;;;;;;;7.43;4.00;;;16.80;1.00;;;;;;4999431;28;20694;-85
2022/08/30 00:54:44;;;;;;;6.77;4.10;;;16.80;1.00;;;;;;4998878;28;20478;-85
2022/08/30 00:57:12;;;;;;;7.20;4.83;;;16.70;1.00;;;;;;4999995;28;20443;-85
2022/08/30 00:59:39;;;;;;;7.00;4.40;;;16.70;1.00;;;;;;4998583;28;20538;-85
2022/08/30 01:02:06;;;;;;;6.30;3.73;;;16.70;1.00;;;;;;4996390;28;20470;-84
2022/08/30 01:04:35;;;;;;;6.17;4.30;;;16.70;1.00;;;;;;4994689;28;20450;-85
2022/08/30 01:07:02;;;;;;;6.70;4.20;;;16.70;1.00;;;;;;4992600;28;20604;-84
2022/08/30 01:09:29;;;;;;;6.80;4.57;;;16.80;1.00;;;;;;4988616;28;20506;-84
2022/08/30 01:11:58;;;;;;;7.60;5.20;;;16.80;1.00;;;;;;4990511;28;20483;-84
2022/08/30 01:14:25;;;;;;;6.90;5.23;;;16.80;1.00;;;;;;4989299;28;20966;-84
2022/08/30 01:16:54;;;;;;;7.57;5.10;;;16.80;1.00;;;;;;4983779;28;20457;-84
2022/08/30 01:19:31;;;;;;;9.27;4.77;;;16.80;1.00;;;;;;5003157;28;20545;-84
2022/08/30 01:22:05;;;;;;;6.70;5.00;;;16.80;1.00;;;;;;4989750;28;20490;-84
2022/08/30 01:24:34;;;;;;;6.93;4.70;;;16.80;1.00;;;;;;4990391;28;20473;-84
2022/08/30 01:27:01;;;;;;;6.43;4.90;;;16.90;1.00;;;;;;4988480;28;20980;-84
2022/08/30 01:29:29;;;;;;;6.70;4.73;;;16.80;1.00;;;;;;4992299;28;20491;-85
2022/08/30 01:31:56;;;;;;;7.00;4.97;;;16.80;1.00;;;;;;4999309;28;20455;-84
2022/08/30 01:34:23;;;;;;;7.00;4.57;;;16.80;1.00;;;;;;4996012;28;20570;-85
2022/08/30 01:36:51;;;;;;;7.63;5.50;;;16.80;1.00;;;;;;4999529;28;20451;-85
2022/08/30 01:39:18;;;;;;;6.97;4.77;;;16.80;1.00;;;;;;4990934;28;20455;-84
2022/08/30 01:41:46;;;;;;;8.00;5.70;;;16.80;1.00;;;;;;4987524;28;20452;-85
2022/08/30 01:44:20;;;;;;;6.80;5.17;;;16.80;1.00;;;;;;4992535;28;20491;-84
2022/08/30 01:46:47;;;;;;;9.90;5.83;;;16.80;1.00;;;;;;4995969;28;20455;-84
2022/08/30 01:49:17;;;;;;;7.67;5.60;;;16.70;1.00;;;;;;4998360;28;21012;-84
2022/08/30 01:51:44;;;;;;;8.77;5.50;;;16.70;1.00;;;;;;4997511;28;20461;-84
2022/08/30 01:54:11;;;;;;;9.37;6.80;;;16.60;1.00;;;;;;4999039;28;21005;-85
2022/08/30 01:56:38;;;;;;;8.17;5.70;;;16.60;1.00;;;;;;4993101;28;20980;-84
2022/08/30 01:59:06;;;;;;;7.20;5.40;;;16.70;1.00;;;;;;4996364;28;20917;-84
2022/08/30 02:01:35;;;;;;;7.83;5.70;;;16.70;1.00;;;;;;4994832;28;20827;-84
2022/08/30 02:04:03;;;;;;;7.97;5.67;;;16.70;1.00;;;;;;4993980;28;20501;-84
2022/08/30 02:06:30;;;;;;;9.00;6.17;;;16.70;1.00;;;;;;4990843;28;20916;-85
2022/08/30 02:08:57;;;;;;;7.90;5.27;;;16.70;1.00;;;;;;4992327;28;20979;-84
2022/08/30 02:11:24;;;;;;;7.20;5.30;;;16.60;1.00;;;;;;4994232;28;20529;-84
2022/08/30 02:13:55;;;;;;;10.37;6.63;;;16.60;1.00;;;;;;4991126;28;20497;-84
2022/08/30 02:16:25;;;;;;;10.60;6.77;;;16.50;1.00;;;;;;4988537;28;20935;-84
2022/08/30 02:18:54;;;;;;;8.70;6.20;;;16.50;1.00;;;;;;4991843;28;21370;-85
2022/08/30 02:21:21;;;;;;;8.00;5.70;;;16.40;1.00;;;;;;4990457;28;20478;-84
2022/08/30 02:23:48;;;;;;;8.33;6.30;;;16.40;1.00;;;;;;4989061;28;20467;-84
2022/08/30 02:26:16;;;;;;;9.37;6.77;;;16.40;1.00;;;;;;4991218;28;20450;-84
2022/08/30 02:28:44;;;;;;;10.87;7.10;;;16.40;1.00;;;;;;4985840;28;20490;-84
2022/08/30 02:31:12;;;;;;;10.13;6.20;;;16.30;1.00;;;;;;4992968;28;20553;-84
2022/08/30 02:33:43;;;;;;;12.97;7.63;;;16.30;1.00;;;;;;4995138;28;20471;-83
2022/08/30 02:36:10;;;;;;;10.87;7.50;;;16.40;1.00;;;;;;4996437;28;20458;-83
2022/08/30 02:38:37;;;;;;;11.63;8.57;;;16.30;1.00;;;;;;5000090;28;20477;-84
2022/08/30 02:41:04;;;;;;;10.53;7.20;;;16.30;1.00;;;;;;4999360;28;20552;-84
2022/08/30 02:43:31;;;;;;;11.73;8.77;;;16.30;1.00;;;;;;4995407;28;20565;-83
2022/08/30 02:45:58;;;;;;;10.40;7.93;;;16.30;1.00;;;;;;4997803;28;20613;-83
2022/08/30 02:48:25;;;;;;;10.57;7.90;;;16.30;1.00;;;;;;4997027;28;20475;-82
2022/08/30 02:51:04;;;;;;;12.70;8.93;;;16.30;1.00;;;;;;4997449;28;20977;-83
2022/08/30 02:53:32;;;;;;;11.80;8.40;;;16.30;1.00;;;;;;4994989;28;20471;-84
2022/08/30 02:55:59;;;;;;;9.93;8.10;;;16.30;1.00;;;;;;4992837;28;20474;-84
2022/08/30 02:58:26;;;;;;;16.77;9.97;;;16.30;1.00;;;;;;4998900;28;20462;-82
2022/08/30 03:00:53;;;;;;;12.43;8.50;;;16.20;1.00;;;;;;4995843;28;20473;-84
2022/08/30 03:03:20;;;;;;;10.73;9.47;;;16.10;1.00;;;;;;4994191;28;20496;-84
2022/08/30 03:05:47;;;;;;;16.73;9.77;;;16.20;1.00;;;;;;4997923;28;20454;-83
2022/08/30 03:08:15;;;;;;;14.30;9.90;;;16.10;1.00;;;;;;4988120;28;21448;-83
2022/08/30 03:10:43;;;;;;;12.10;9.40;;;16.10;1.00;;;;;;4988837;28;20543;-83
2022/08/30 03:13:10;;;;;;;11.20;9.50;;;16.00;1.00;;;;;;4995210;28;20474;-83
2022/08/30 03:15:39;;;;;;;13.90;11.07;;;16.00;1.00;;;;;;4992243;28;20448;-83
2022/08/30 03:18:07;;;;;;;12.60;10.37;;;15.90;1.00;;;;;;4999291;28;20435;-83
2022/08/30 03:20:36;;;;;;;12.27;9.90;;;15.80;1.00;;;;;;4992472;28;20511;-83
2022/08/30 03:23:03;;;;;;;14.17;10.47;;;15.80;1.00;;;;;;5001954;28;21279;-83
2022/08/30 03:25:32;;;;;;;13.47;10.37;;;15.70;1.00;;;;;;4994664;28;20472;-82
2022/08/30 03:27:59;;;;;;;12.43;9.60;;;15.70;1.00;;;;;;4994882;28;20498;-83
2022/08/30 03:30:27;;;;;;;12.47;10.40;;;15.70;1.00;;;;;;4997592;28;20477;-82
2022/08/30 03:32:53;;;;;;;12.30;9.73;;;15.60;1.00;;;;;;5001105;28;20471;-82
2022/08/30 03:35:20;;;;;;;16.00;9.30;;;15.70;1.00;;;;;;4998191;28;20476;-83
2022/08/30 03:37:48;;;;;;;13.03;10.60;;;15.70;1.00;;;;;;4998526;28;20543;-83
2022/08/30 03:40:17;;;;;;;12.50;10.53;;;15.60;1.00;;;;;;5000004;28;20513;-83
2022/08/30 03:42:45;;;;;;;13.00;10.43;;;15.60;1.00;;;;;;4998253;28;20477;-82
2022/08/30 03:45:14;;;;;;;15.60;12.50;;;15.60;1.00;;;;;;4994846;28;20430;-82
2022/08/30 03:47:41;;;;;;;11.83;10.07;;;15.60;1.00;;;;;;4996151;28;20520;-83
2022/08/30 03:50:09;;;;;;;12.23;10.90;;;15.60;1.00;;;;;;4994457;28;20962;-84
2022/08/30 03:52:38;;;;;;;14.10;11.33;;;15.70;1.00;;;;;;4993040;28;20475;-84
2022/08/30 03:55:06;;;;;;;14.80;13.40;;;15.70;1.00;;;;;;4995139;28;20534;-84
2022/08/30 03:57:33;;;;;;;11.87;10.67;;;15.70;1.00;;;;;;4993879;28;20986;-83
2022/08/30 04:00:01;;;;;;;12.40;11.20;;;15.80;1.00;;;;;;4995454;28;20454;-83
2022/08/30 04:02:28;;;;;;;11.97;10.77;;;15.80;1.00;;;;;;4995098;28;20498;-84
2022/08/30 04:04:54;;;;;;;18.30;16.70;;;15.80;1.00;;;;;;4988957;28;20470;-83
2022/08/30 04:07:21;;;;;;;12.23;11.10;;;15.80;1.00;;;;;;4986984;28;20427;-84
2022/08/30 04:09:48;;;;;;;13.30;12.10;;;15.80;1.00;;;;;;4995064;28;21243;-82
2022/08/30 04:12:17;;;;;;;11.50;10.37;;;15.70;1.00;;;;;;4990581;28;20493;-83
2022/08/30 04:14:44;;;;;;;11.70;10.60;;;15.70;1.00;;;;;;4988141;28;20496;-83
2022/08/30 04:17:16;;;;;;;11.80;10.60;;;15.70;1.00;;;;;;4997063;28;20553;-82
2022/08/30 04:19:43;;;;;;;11.70;10.53;;;15.70;1.00;;;;;;4993852;28;20909;-83
2022/08/30 04:22:10;;;;;;;11.47;10.33;;;15.70;1.00;;;;;;4998415;28;20554;-83
2022/08/30 04:24:40;;;;;;;12.77;11.47;;;15.70;1.00;;;;;;4995853;28;21070;-83
2022/08/30 04:27:07;;;;;;;11.53;10.33;;;15.70;1.00;;;;;;4998015;28;20481;-83
2022/08/30 04:29:36;;;;;;;13.93;12.63;;;15.70;1.00;;;;;;4998311;28;21425;-83
2022/08/30 04:32:03;;;;;;;12.20;10.90;;;15.70;1.00;;;;;;4991945;28;20427;-84
2022/08/30 04:34:31;;;;;;;12.33;11.10;;;15.70;1.00;;;;;;4997408;28;20469;-84
2022/08/30 04:36:58;;;;;;;11.03;9.60;;;15.70;1.00;;;;;;4991868;28;20454;-83
2022/08/30 04:39:25;;;;;;;11.30;10.20;;;15.70;1.00;;;;;;4994547;28;20583;-83
2022/08/30 04:41:51;;;;;;;10.60;9.23;;;15.70;1.00;;;;;;4990823;28;20515;-84
2022/08/30 04:44:19;;;;;;;10.73;9.70;;;15.70;1.00;;;;;;4997611;28;20459;-85
2022/08/30 04:46:45;;;;;;;9.63;8.73;;;15.60;1.00;;;;;;5001905;28;20471;-82
2022/08/30 04:49:12;;;;;;;11.47;10.40;;;15.60;1.00;;;;;;4994181;28;20467;-76
2022/08/30 04:51:40;;;;;;;10.10;9.20;;;15.60;1.00;;;;;;4988416;28;20475;-76
2022/08/30 04:54:07;;;;;;;10.00;9.00;;;15.70;1.00;;;;;;4987799;28;20455;-75
2022/08/30 04:56:36;;;;;;;11.10;10.00;;;15.80;1.00;;;;;;4988662;28;20517;-75
2022/08/30 04:59:03;;;;;;;13.33;9.40;;;16.00;1.00;;;;;;4990063;28;20454;-75
2022/08/30 05:01:39;;;;;;;9.70;8.83;;;16.10;1.00;;;;;;4984882;28;20501;-75
2022/08/30 05:04:06;;;;;;;10.30;9.27;;;16.20;1.00;;;;;;4991642;28;20552;-76
2022/08/30 05:06:32;;;;;;;10.60;9.50;;;16.30;1.00;;;;;;4983097;28;20469;-75
2022/08/30 05:09:00;;;;;;;9.33;8.40;;;16.30;1.00;;;;;;4984917;28;20471;-75
2022/08/30 05:11:28;;;;;;;9.80;8.80;;;16.30;1.00;;;;;;4976153;28;20474;-74
2022/08/30 05:13:55;;;;;;;10.60;9.50;;;16.20;1.00;;;;;;4980089;28;20454;-74
2022/08/30 05:16:22;;;;;;;10.77;9.77;;;16.30;1.00;;;;;;4994902;28;20477;-73
2022/08/30 05:18:50;;;;;;;9.20;8.20;;;16.30;1.00;;;;;;4986780;28;20458;-74
2022/08/30 05:21:20;;;;;;;11.10;9.73;;;16.30;1.00;;;;;;4994107;28;20509;-74
2022/08/30 05:23:48;;;;;;;10.27;9.27;;;16.30;1.00;;;;;;4987808;28;20455;-74
2022/08/30 05:26:18;;;;;;;11.50;10.30;;;16.40;1.00;;;;;;4989507;28;20523;-74
2022/08/30 05:28:46;;;;;;;10.40;9.40;;;16.50;1.00;;;;;;4983696;28;20466;-74
2022/08/30 05:31:16;;;;;;;12.10;11.00;;;16.60;1.00;;;;;;4989461;28;21014;-73
2022/08/30 05:33:44;;;;;;;9.90;8.90;;;16.70;1.00;;;;;;4988603;28;20443;-72
2022/08/30 05:36:12;;;;;;;10.53;9.30;;;16.80;1.00;;;;;;4981574;28;20474;-75
2022/08/30 05:38:40;;;;;;;12.43;9.00;;;16.90;1.00;;;;;;4989501;28;20502;-74
2022/08/30 05:41:07;;;;;;;13.23;11.07;;;17.00;1.00;;;;;;4988363;28;20496;-75
2022/08/30 05:43:36;;;;;;;9.90;9.00;;;17.00;1.00;;;;;;4984899;28;20921;-74
2022/08/30 05:46:05;;;;;;;12.50;10.37;;;17.00;1.00;;;;;;4992620;28;20503;-73
2022/08/30 05:48:32;;;;;;;11.33;10.00;;;17.10;1.00;;;;;;4990198;28;21346;-78
2022/08/30 05:51:05;;;;;;;14.10;12.60;;;17.20;1.00;;;;;;4976331;28;20505;-79
2022/08/30 05:53:32;;;;;;;10.33;9.43;;;17.30;1.00;;;;;;4998989;28;20586;-79
2022/08/30 05:56:01;;;;;;;11.37;10.27;;;17.50;1.00;;;;;;4994347;28;20455;-75
2022/08/30 05:58:28;;;;;;;8.63;7.73;;;17.60;1.00;;;;;;4991403;28;20558;-78
2022/08/30 06:00:57;;;;;;;8.67;7.87;;;17.80;1.00;;;;;;4990674;28;20510;-74
2022/08/30 06:03:24;;;;;;;10.60;9.23;;;18.00;1.00;;;;;;4992499;28;20451;-77
2022/08/30 06:05:51;;;;;;;9.40;8.50;;;18.10;1.00;;;;;;4987313;28;20454;-74
2022/08/30 06:08:18;;;;;;;9.00;8.20;;;18.20;1.00;;;;;;4987330;28;20853;-74
2022/08/30 06:10:45;;;;;;;10.27;8.80;;;18.20;1.00;;;;;;4986407;28;20466;-75
2022/08/30 06:13:14;;;;;;;9.70;8.73;;;18.20;1.00;;;;;;4983201;28;20474;-75
2022/08/30 06:15:42;;;;;;;9.00;8.10;;;18.30;1.00;;;;;;4980222;28;21763;-74
2022/08/30 06:18:13;;;;;;;10.50;9.50;;;18.40;1.00;;;;;;4966051;28;21058;-74
2022/08/30 06:20:42;;;;;;;10.07;9.00;;;18.60;1.00;;;;;;4985632;28;20548;-74
2022/08/30 06:23:09;;;;;;;9.03;8.10;;;18.60;1.00;;;;;;4986561;28;20461;-74
2022/08/30 06:25:37;;;;;;;11.50;9.50;;;18.70;1.00;;;;;;4982944;28;20478;-74
2022/08/30 06:28:06;;;;;;;10.30;9.30;;;18.80;1.00;;;;;;4992368;28;20502;-83
2022/08/30 06:30:46;;;;;;;9.43;8.50;;;18.90;1.00;;;;;;4998706;28;20467;-83
2022/08/30 06:33:21;;;;;;;10.37;9.27;;;18.90;1.00;;;;;;4995253;28;20537;-81
2022/08/30 06:35:48;;;;;;;10.73;9.67;;;19.00;1.00;;;;;;4995500;28;20569;-82
2022/08/30 06:38:20;;;;;;;10.50;9.50;;;19.10;1.00;;;;;;4995773;28;20520;-83
2022/08/30 06:40:49;;;;;;;10.23;9.10;;;19.20;1.00;;;;;;4996076;28;20474;-86
2022/08/30 06:43:16;;;;;;;10.20;9.13;;;19.20;1.00;;;;;;4989830;28;20458;-84
2022/08/30 06:45:43;;;;;;;12.00;9.90;;;19.20;1.00;;;;;;4993271;28;20466;-82
2022/08/30 06:48:10;;;;;;;10.70;9.30;;;19.30;1.00;;;;;;4994945;28;20675;-84
2022/08/30 06:50:40;;;;;;;9.90;8.90;;;19.40;1.00;;;;;;4988150;28;20554;-82
2022/08/30 06:53:07;;;;;;;10.83;9.73;;;19.30;1.00;;;;;;4992862;28;21092;-82
2022/08/30 06:55:37;;;;;;;11.60;9.73;;;19.40;1.00;;;;;;4992439;28;20430;-87
2022/08/30 06:58:04;;;;;;;10.93;9.73;;;19.50;1.00;;;;;;4999173;28;20705;-82
2022/08/30 07:00:31;;;;;;;11.10;8.67;;;19.50;1.00;;;;;;4991511;28;20479;-83
2022/08/30 07:02:58;;;;;;;10.47;9.03;;;19.50;1.00;;;;;;4994776;28;20465;-81
2022/08/30 07:05:25;;;;;;;13.30;11.83;;;19.60;1.00;;;;;;4996927;28;20550;-82
2022/08/30 07:07:55;;;;;;;15.57;13.93;;;19.50;1.00;;;;;;4988708;28;20994;-81
2022/08/30 07:10:22;;;;;;;11.40;10.00;;;19.50;1.00;;;;;;4990984;28;20967;-82
2022/08/30 07:13:00;;;;;;;13.63;10.40;;;19.50;1.00;;;;;;4978161;28;20536;-84
2022/08/30 07:15:27;;;;;;;13.03;11.30;;;19.50;1.00;;;;;;4990322;28;21016;-82
2022/08/30 07:20:38;;;;;;;17.67;10.60;;;19.70;1.00;;;;;;4990112;28;20624;-81
2022/08/30 07:23:07;;;;;;;13.93;11.20;;;19.80;1.00;;;;;;4989329;28;20518;-82
2022/08/30 07:25:35;;;;;;;13.13;11.00;;;20.00;1.00;;;;;;4994982;28;20462;-82
2022/08/30 07:28:02;;;;;;;13.07;10.07;;;20.20;1.00;;;;;;4992929;28;20550;-83
2022/08/30 07:30:30;;;;;;;16.40;10.47;;;20.30;1.00;;;;;;4994489;28;20991;-82
2022/08/30 07:32:58;;;;;;;11.73;9.73;;;20.50;1.00;;;;;;4996760;28;20429;-82
2022/08/30 07:35:25;;;;;;;10.40;9.40;;;20.40;1.00;;;;;;4997763;28;20947;-83
2022/08/30 07:37:53;;;;;;;11.77;9.20;;;20.50;1.00;;;;;;4997937;28;20490;-85
2022/08/30 07:40:21;;;;;;;11.10;9.43;;;20.40;1.00;;;;;;4995629;28;20475;-84
2022/08/30 07:42:48;;;;;;;11.30;10.20;;;20.50;1.00;;;;;;4997973;28;20459;-82
2022/08/30 07:45:17;;;;;;;11.63;9.10;;;20.60;1.00;;;;;;4995199;28;20482;-83
2022/08/30 07:47:44;;;;;;;10.10;8.73;;;20.50;1.00;;;;;;4995823;28;20535;-84
2022/08/30 07:50:11;;;;;;;9.87;8.80;;;20.40;1.00;;;;;;4997845;28;20512;-83
2022/08/30 07:52:38;;;;;;;11.73;9.40;;;20.30;1.00;;;;;;4993653;28;20470;-84
2022/08/30 07:55:06;;;;;;;10.50;9.40;;;20.20;1.00;;;;;;4998723;28;20485;-84
2022/08/30 07:57:38;;;;;;;10.40;8.97;;;20.20;1.00;;;;;;4994781;28;20470;-83
2022/08/30 08:00:06;;;;;;;9.73;8.13;;;20.40;1.00;;;;;;4996879;28;20481;-84
2022/08/30 08:02:35;;;;;;;10.30;9.20;;;20.50;1.00;;;;;;4993790;28;20482;-84
2022/08/30 08:05:03;;;;;;;12.10;10.33;;;20.60;1.00;;;;;;4992040;28;20466;-83
2022/08/30 08:07:31;;;;;;;10.10;9.10;;;20.70;1.00;;;;;;4991481;28;20851;-80
2022/08/30 08:09:58;;;;;;;10.63;9.53;;;20.70;1.00;;;;;;4986184;28;20574;-84
2022/08/30 08:12:25;;;;;;;11.20;9.27;;;20.80;1.00;;;;;;4987324;28;20563;-79
2022/08/30 08:14:53;;;;;;;7.67;6.87;;;20.90;1.00;;;;;;4991705;28;20982;-81
2022/08/30 08:17:20;;;;;;;8.57;7.00;;;20.90;1.00;;;;;;4993700;28;20424;-81
2022/08/30 08:19:47;;;;;;;9.63;6.50;;;20.80;1.00;;;;;;4986707;28;20526;-80
2022/08/30 08:22:16;;;;;;;8.80;7.87;;;20.90;1.00;;;;;;4995704;28;20557;-81
2022/08/30 08:24:43;;;;;;;8.87;6.90;;;21.00;1.00;;;;;;4993064;28;20463;-81
2022/08/30 08:27:09;;;;;;;11.40;6.27;;;21.00;1.00;;;;;;5000359;28;20541;-84
2022/08/30 08:29:39;;;;;;;6.10;4.83;;;21.20;1.00;;;;;;4992237;28;22909;-84
2022/08/30 08:32:07;;;;;;;5.70;4.93;;;21.40;1.00;;;;;;5001475;28;20516;-86
2022/08/30 08:34:35;;;;;;;6.67;4.87;;;21.50;1.00;;;;;;4998722;28;20470;-85
2022/08/30 08:37:04;;;;;;;6.17;4.10;;;21.70;1.00;;;;;;4995822;28;20436;-85
2022/08/30 08:39:30;;;;;;;5.10;3.20;;;21.90;1.00;;;;;;4996548;28;20478;-83
2022/08/30 08:42:05;;;;;;;8.47;3.17;;;21.90;1.00;;;;;;4996765;28;20458;-84
2022/08/30 08:44:46;;;;;;;5.40;3.90;;;22.10;1.00;;;;;;4989880;28;21085;-84
2022/08/30 08:47:24;;;;;;;5.50;4.73;;;22.20;1.00;;;;;;5003530;28;20466;-85
2022/08/30 08:49:57;;;;;;;3.73;3.13;;;22.10;1.00;;;;;;4996935;28;20440;-82
2022/08/30 08:55:17;;;;;;;3.60;2.90;;;22.30;1.00;;;;;;4994891;28;20570;-83
2022/08/30 08:57:46;;;;;;;2.90;2.33;;;22.40;1.00;;;;;;4997322;28;20541;-81
2022/08/30 09:00:14;;;;;;;3.80;2.60;;;22.60;1.00;;;;;;4999626;28;20415;-82
2022/08/30 09:02:45;;;;;;;3.97;2.57;;;22.80;1.00;;;;;;4995164;28;20464;-83
2022/08/30 09:05:17;;;;;;;4.97;2.53;;;23.00;1.00;;;;;;4994828;28;20862;-83
2022/08/30 09:07:49;;;;;;;3.93;2.07;;;23.30;1.00;;;;;;4999383;28;20510;-84
2022/08/30 09:10:16;;;;;;;2.90;1.80;;;23.50;1.00;;;;;;5000001;28;21025;-83
2022/08/30 09:12:44;;;;;;;5.43;2.80;;;23.90;1.00;;;;;;4998232;28;20458;-83
2022/08/30 09:15:16;;;;;;;5.33;3.40;;;24.30;1.00;;;;;;4999385;28;20465;-85
2022/08/30 09:17:55;;;;;;;2.63;1.40;;;24.40;1.00;;;;;;4997306;28;20443;-84
2022/08/30 09:20:29;;;;;;;3.90;1.80;;;24.60;1.00;;;;;;5000151;28;20482;-83
2022/08/30 09:22:57;;;;;;;3.60;1.20;;;24.70;1.00;;;;;;5000225;28;20612;-84
2022/08/30 09:25:28;;;;;;;3.00;1.80;;;24.30;1.00;;;;;;4998190;28;20439;-83
2022/08/30 09:28:09;;;;;;;3.00;1.73;;;24.50;1.00;;;;;;4995497;28;21018;-83
2022/08/30 09:30:37;;;;;;;4.23;1.57;;;24.80;1.00;;;;;;4987309;28;20569;-81
2022/08/30 09:33:17;;;;;;;3.07;1.50;;;25.00;1.00;;;;;;5010030;28;21436;-83
2022/08/30 09:35:46;;;;;;;3.87;1.93;;;24.90;1.00;;;;;;5001459;28;20451;-83
2022/08/30 09:38:20;;;;;;;3.80;1.60;;;24.70;1.00;;;;;;4999663;28;20464;-83
2022/08/30 09:40:53;;;;;;;3.67;2.03;;;24.50;1.00;;;;;;4997359;28;20929;-83
2022/08/30 09:43:23;;;;;;;5.60;1.53;;;24.40;1.00;;;;;;4998042;28;20464;-83
2022/08/30 09:46:07;;;;;;;3.60;1.20;;;24.10;1.00;;;;;;4996152;28;20462;-84
2022/08/30 09:48:39;;;;;;;2.80;1.07;;;23.80;1.00;;;;;;4998829;28;20470;-84
2022/08/30 09:51:32;;;;;;;3.70;1.57;;;23.50;1.00;;;;;;4994781;28;20975;-83
2022/08/30 09:54:10;;;;;;;7.07;2.27;;;23.40;1.00;;;;;;4998330;28;20480;-83
2022/08/30 09:56:42;;;;;;;2.87;0.90;;;23.40;1.00;;;;;;5002327;28;20498;-83
2022/08/30 09:59:26;;;;;;;3.93;1.20;;;23.40;1.00;;;;;;4991369;28;20478;-82
2022/08/30 10:02:04;;;;;;;4.17;1.63;;;23.50;1.00;;;;;;4997701;28;20498;-84
2022/08/30 10:04:40;;;;;;;4.40;1.60;;;23.80;1.00;;;;;;5000923;28;20456;-84
2022/08/30 10:07:19;;;;;;;4.60;1.17;;;23.80;1.00;;;;;;4994501;28;20486;-83
2022/08/30 10:09:56;;;;;;;11.37;3.40;;;23.90;1.00;;;;;;4992930;28;20606;-84
2022/08/30 10:12:31;;;;;;;4.90;1.90;;;24.20;1.00;;;;;;4995687;28;20466;-83
2022/08/30 10:15:06;;;;;;;4.70;1.50;;;24.50;1.00;;;;;;4994486;28;20458;-84
2022/08/30 10:17:44;;;;;;;2.53;0.93;;;24.80;1.00;;;;;;4998037;28;20466;-83
2022/08/30 10:20:23;;;;;;;4.17;1.13;;;25.10;1.00;;;;;;4997692;28;20478;-84
2022/08/30 10:22:56;;;;;;;3.13;1.47;;;25.80;1.00;;;;;;4998169;28;20457;-84
2022/08/30 10:25:26;;;;;;;4.80;1.70;;;27.30;1.00;;;;;;5001094;28;20485;-83
2022/08/30 10:27:58;;;;;;;5.60;1.47;;;28.40;1.00;;;;;;4997180;28;20466;-83
2022/08/30 10:30:25;;;;;;;5.10;1.30;;;28.50;1.00;;;;;;4999282;28;20941;-83
2022/08/30 10:32:58;;;;;;;6.57;1.60;;;28.30;1.00;;;;;;4996005;28;20468;-84
2022/08/30 10:35:29;;;;;;;4.50;0.83;;;29.40;1.00;;;;;;4999630;28;20474;-84
2022/08/30 10:38:01;;;;;;;5.40;1.20;;;30.90;1.00;;;;;;4995288;28;20459;-84
2022/08/30 10:44:20;;;;;;;6.60;1.47;;;30.10;1.00;;;;;;4997060;28;20476;-82
2022/08/30 10:47:00;;;;;;;7.17;2.47;;;30.80;1.00;;;;;;4997275;28;20435;-83
2022/08/30 10:49:30;;;;;;;5.83;2.30;;;30.70;1.00;;;;;;4998100;28;21538;-83
2022/08/30 10:52:18;;;;;;;6.33;1.97;;;30.10;1.00;;;;;;5004319;28;20458;-83
2022/08/30 10:55:11;;;;;;;6.00;1.60;;;29.70;1.00;;;;;;4990085;28;20472;-84
2022/08/30 10:57:40;;;;;;;5.40;1.40;;;29.40;1.00;;;;;;4965590;28;20842;-82
2022/08/30 11:00:10;;;;;;;9.17;2.50;;;29.00;1.00;;;;;;4995890;28;20459;-82
2022/08/30 11:03:35;;;;;;;6.90;1.70;;;28.70;1.00;;;;;;4998248;28;20467;-84
2022/08/30 11:06:19;;;;;;;5.20;1.63;;;28.20;1.00;;;;;;4958947;28;20474;-85
2022/08/30 11:09:17;;;;;;;5.77;1.33;;;28.00;1.00;;;;;;4996247;28;20521;-83
2022/08/30 11:12:06;;;;;;;5.37;1.93;;;28.00;1.00;;;;;;4986372;28;20908;-82
2022/08/30 11:14:34;;;;;;;5.73;1.93;;;27.90;1.00;;;;;;4985650;28;20471;-83
2022/08/30 11:17:02;;;;;;;6.10;2.00;;;27.50;1.00;;;;;;4989886;28;20466;-82
2022/08/30 11:19:37;;;;;;;6.03;1.80;;;27.40;1.00;;;;;;4992677;28;20551;-83
2022/08/30 11:22:13;;;;;;;5.53;2.43;;;27.20;1.00;;;;;;4993161;28;20556;-83
2022/08/30 11:25:08;;;;;;;6.70;2.53;;;27.10;1.00;;;;;;4997053;28;20446;-81
2022/08/30 11:27:53;;;;;;;6.23;2.20;;;26.90;1.00;;;;;;4995829;28;20475;-82
2022/08/30 11:30:51;;;;;;;7.30;1.93;;;26.80;1.00;;;;;;4993777;28;20497;-84
2022/08/30 11:33:41;;;;;;;8.57;2.60;;;27.10;1.00;;;;;;4997686;28;20502;-83
2022/08/30 11:36:08;;;;;;;6.97;2.53;;;27.40;1.00;;;;;;4992503;28;20491;-84
2022/08/30 11:38:58;;;;;;;5.50;1.60;;;27.90;1.00;;;;;;4992156;28;20481;-82
2022/08/30 11:41:39;;;;;;;5.30;1.50;;;28.50;1.00;;;;;;4997060;28;20540;-83
2022/08/30 11:44:25;;;;;;;6.33;1.63;;;30.50;1.00;;;;;;4991435;28;20477;-84
2022/08/30 11:46:55;;;;;;;5.60;1.83;;;32.30;1.00;;;;;;4997399;28;20513;-83
2022/08/30 11:49:45;;;;;;;5.60;1.90;;;33.60;1.00;;;;;;4994353;28;20484;-83
2022/08/30 11:52:36;;;;;;;6.30;2.50;;;35.50;1.00;;;;;;4995492;28;20475;-83
2022/08/30 11:55:40;;;;;;;7.10;2.80;;;36.30;1.00;;;;;;4996709;28;20495;-83
2022/08/30 11:58:24;;;;;;;6.73;1.50;;;35.50;1.00;;;;;;4999125;28;20474;-84
2022/08/30 12:01:19;;;;;;;5.77;2.07;;;33.80;1.00;;;;;;4998762;28;21056;-82
2022/08/30 12:03:55;;;;;;;9.13;2.10;;;33.40;1.00;;;;;;4997731;28;20467;-82
2022/08/30 12:06:45;;;;;;;5.50;1.60;;;34.70;1.00;;;;;;4984650;28;20551;-83
2022/08/30 12:10:05;;;;;;;6.40;1.90;;;35.10;1.00;;;;;;4988140;28;20544;-83
2022/08/30 12:12:48;;;;;;;7.53;3.33;;;34.80;1.00;;;;;;4986645;28;20542;-84
2022/08/30 12:15:59;;;;;;;5.93;1.67;;;33.70;1.00;;;;;;4990103;28;20455;-85
2022/08/30 12:18:42;;;;;;;6.37;1.90;;;32.80;1.00;;;;;;4988106;28;20467;-81
2022/08/30 12:21:26;;;;;;;7.20;1.90;;;31.90;1.00;;;;;;4995972;28;20458;-82
2022/08/30 12:23:59;;;;;;;5.77;1.90;;;31.10;1.00;;;;;;4996426;28;20470;-81
2022/08/30 12:26:32;;;;;;;7.30;2.00;;;30.40;1.00;;;;;;4995124;28;20455;-82
2022/08/30 12:29:13;;;;;;;11.10;2.93;;;30.40;1.00;;;;;;4992728;28;20547;-83
2022/08/30 12:31:43;;;;;;;8.67;2.43;;;31.10;1.00;;;;;;4995390;28;20474;-82
2022/08/30 12:34:20;;;;;;;7.50;1.73;;;31.90;1.00;;;;;;4992600;28;20490;-83
2022/08/30 12:37:02;;;;;;;5.63;1.17;;;33.60;1.00;;;;;;4990365;28;20502;-83
2022/08/30 12:39:31;;;;;;;5.40;1.20;;;34.70;1.00;;;;;;4996010;28;20488;-83
2022/08/30 12:42:12;;;;;;;6.70;1.50;;;35.10;1.00;;;;;;4995731;28;20479;-84
2022/08/30 12:44:39;;;;;;;11.20;6.70;;;34.70;1.00;;;;;;4999686;28;20548;-82
2022/08/30 12:47:08;;;;;;;5.53;1.20;;;34.70;1.00;;;;;;4996383;28;20454;-83
2022/08/30 12:49:37;;;;;;;7.77;2.23;;;36.10;1.00;;;;;;4995793;28;20488;-82
2022/08/30 12:52:30;;;;;;;6.07;1.50;;;38.20;1.00;;;;;;4999069;28;20518;-82
2022/08/30 12:55:14;;;;;;;5.93;1.63;;;39.80;1.00;;;;;;4989244;28;20475;-84
2022/08/30 12:57:45;;;;;;;7.40;2.00;;;40.50;1.00;;;;;;4996048;28;20994;-82
2022/08/30 13:00:25;;;;;;;7.90;1.97;;;40.80;1.00;;;;;;4999531;28;20427;-83
2022/08/30 13:02:53;;;;;;;6.37;2.00;;;41.20;1.00;;;;;;4998255;28;20509;-83
2022/08/30 13:05:44;;;;;;;5.97;1.47;;;41.60;1.00;;;;;;4996999;28;20488;-81
2022/08/30 13:08:15;;;;;;;5.30;1.40;;;43.00;1.00;;;;;;4988435;28;22924;-82
2022/08/30 13:10:55;;;;;;;5.20;1.90;;;43.80;1.00;;;;;;4989112;28;20470;-82
2022/08/30 13:13:40;;;;;;;7.00;1.80;;;44.00;1.00;;;;;;4988088;28;20600;-81
2022/08/30 13:16:25;;;;;;;5.93;1.60;;;43.30;1.00;;;;;;4989437;28;20655;-83
2022/08/30 13:18:54;;;;;;;13.00;6.20;;;42.70;1.00;;;;;;4989697;28;20538;-81
2022/08/30 13:21:26;;;;;;;6.60;1.93;;;42.20;1.00;;;;;;4988394;28;20463;-83
2022/08/30 13:24:00;;;;;;;7.07;2.23;;;41.60;1.00;;;;;;4984327;28;20469;-80